createdAt,value
2023-03-06T05:00:35.107Z,0.00
2023-03-06T05:01:36.093Z,0.00
2023-03-06T05:02:36.101Z,0.00
2023-03-06T05:03:36.077Z,0.00
2023-03-06T05:04:36.069Z,0.00
2023-03-06T05:05:36.049Z,0.00
2023-03-06T05:06:36.072Z,0.00
2023-03-06T05:07:36.024Z,0.00
2023-03-06T05:08:36.036Z,0.00
2023-03-06T05:09:37.664Z,0.00
2023-03-06T05:10:35.984Z,0.00
2023-03-06T05:11:36.000Z,0.00
2023-03-06T05:12:35.978Z,0.00
2023-03-06T05:13:35.951Z,0.00
2023-03-06T05:14:35.986Z,0.00
2023-03-06T05:15:35.911Z,1.00
2023-03-06T05:16:36.141Z,0.00
2023-03-06T05:17:35.918Z,0.00
2023-03-06T05:18:35.869Z,1.00
2023-03-06T05:19:35.859Z,1.00
2023-03-06T05:20:35.869Z,1.00
2023-03-06T05:21:35.876Z,0.00
2023-03-06T05:22:35.828Z,2.00
2023-03-06T05:23:35.799Z,2.00
2023-03-06T05:24:35.819Z,1.00
2023-03-06T05:25:35.779Z,1.00
2023-03-06T05:26:35.827Z,0.00
2023-03-06T05:27:35.763Z,2.00
2023-03-06T05:28:35.761Z,1.00
2023-03-06T05:29:35.762Z,2.00
2023-03-06T05:30:35.746Z,6.00
2023-03-06T05:31:35.764Z,5.00
2023-03-06T05:32:36.071Z,6.00
2023-03-06T05:33:35.709Z,6.00
2023-03-06T05:34:35.688Z,4.00
2023-03-06T05:35:35.731Z,8.00
2023-03-06T05:36:35.676Z,11.00
2023-03-06T05:37:35.675Z,13.00
2023-03-06T05:38:35.676Z,14.00
2023-03-06T05:39:35.649Z,14.00
2023-03-06T05:40:35.695Z,18.00
2023-03-06T05:41:35.722Z,21.00
2023-03-06T05:42:35.630Z,21.00
2023-03-06T05:43:35.613Z,24.00
2023-03-06T05:44:35.621Z,33.00
2023-03-06T05:45:35.648Z,31.00
2023-03-06T05:46:35.598Z,33.00
2023-03-06T05:47:35.562Z,35.00
2023-03-06T05:48:35.607Z,39.00
2023-03-06T05:49:35.551Z,41.00
2023-03-06T05:50:35.547Z,42.00
2023-03-06T05:51:35.549Z,52.00
2023-03-06T05:52:35.516Z,63.00
2023-03-06T05:53:35.507Z,61.00
2023-03-06T05:54:35.484Z,70.00
2023-03-06T05:55:35.480Z,79.00
2023-03-06T05:56:35.470Z,95.00
2023-03-06T05:57:35.457Z,96.00
2023-03-06T05:58:35.510Z,98.00
2023-03-06T05:59:35.442Z,102.00
2023-03-06T06:00:36.093Z,117.00
2023-03-06T06:01:35.545Z,121.00
2023-03-06T06:02:35.487Z,127.00
2023-03-06T06:03:35.490Z,135.00
2023-03-06T06:04:35.395Z,140.00
2023-03-06T06:05:35.362Z,136.00
2023-03-06T06:06:35.469Z,136.00
2023-03-06T06:07:35.394Z,163.00
2023-03-06T06:08:35.406Z,159.00
2023-03-06T06:09:35.392Z,166.00
2023-03-06T06:10:35.398Z,172.00
2023-03-06T06:11:35.398Z,179.00
2023-03-06T06:12:35.482Z,175.00
2023-03-06T06:13:35.356Z,178.00
2023-03-06T06:14:35.318Z,173.00
2023-03-06T06:15:35.294Z,183.00
2023-03-06T06:16:35.310Z,185.00
2023-03-06T06:17:35.332Z,196.00
2023-03-06T06:18:35.244Z,192.00
2023-03-06T06:19:35.236Z,211.00
2023-03-06T06:20:35.292Z,212.00
2023-03-06T06:21:35.221Z,229.00
2023-03-06T06:22:35.262Z,227.00
2023-03-06T06:23:35.365Z,235.00
2023-03-06T06:24:35.252Z,244.00
2023-03-06T06:25:35.212Z,240.00
2023-03-06T06:26:35.273Z,249.00
2023-03-06T06:27:35.235Z,252.00
2023-03-06T06:28:35.142Z,252.00
2023-03-06T06:29:35.130Z,255.00
2023-03-06T06:30:35.134Z,271.00
2023-03-06T06:31:35.249Z,277.00
2023-03-06T06:32:35.131Z,274.00
2023-03-06T06:33:35.137Z,273.00
2023-03-06T06:34:35.105Z,284.00
2023-03-06T06:35:35.195Z,305.00
2023-03-06T06:36:35.077Z,314.00
2023-03-06T06:37:35.058Z,336.00
2023-03-06T06:38:35.161Z,326.00
2023-03-06T06:39:35.040Z,324.00
2023-03-06T06:40:35.020Z,350.00
2023-03-06T06:41:54.930Z,369.00
2023-03-06T06:42:39.681Z,376.00
2023-03-06T06:43:35.289Z,383.00
2023-03-06T06:44:34.987Z,384.00
2023-03-06T06:45:34.987Z,392.00
2023-03-06T06:47:21.367Z,400.00
2023-03-06T06:47:35.044Z,418.00
2023-03-06T06:48:35.662Z,425.00
2023-03-06T06:49:35.047Z,431.00
2023-03-06T06:50:34.918Z,446.00
2023-03-06T06:51:34.959Z,458.00
2023-03-06T06:52:34.915Z,477.00
2023-03-06T06:53:34.954Z,465.00
2023-03-06T06:54:35.004Z,488.00
2023-03-06T06:55:34.860Z,497.00
2023-03-06T06:56:34.867Z,498.00
2023-03-06T06:57:34.876Z,471.00
2023-03-06T06:58:35.141Z,534.00
2023-03-06T06:59:34.883Z,535.00
2023-03-06T07:00:34.826Z,508.00
2023-03-06T07:01:34.961Z,564.00
2023-03-06T07:02:34.790Z,577.00
2023-03-06T07:03:34.783Z,608.00
2023-03-06T07:04:34.763Z,644.00
2023-03-06T07:05:34.779Z,635.00
2023-03-06T07:06:34.733Z,658.00
2023-03-06T07:07:34.764Z,555.00
2023-03-06T07:08:34.736Z,631.00
2023-03-06T07:09:34.743Z,683.00
2023-03-06T07:10:34.697Z,616.00
2023-03-06T07:11:34.750Z,690.00
2023-03-06T07:12:34.695Z,741.00
2023-03-06T07:13:34.672Z,798.00
2023-03-06T07:14:34.689Z,890.00
2023-03-06T07:15:34.724Z,898.00
2023-03-06T07:16:34.633Z,887.00
2023-03-06T07:17:34.902Z,867.00
2023-03-06T07:18:34.632Z,951.00
2023-03-06T07:19:34.667Z,985.00
2023-03-06T07:20:34.584Z,1030.00
2023-03-06T07:21:34.611Z,1092.00
2023-03-06T07:22:49.906Z,1079.00
2023-03-06T07:23:34.577Z,1073.00
2023-03-06T07:24:34.657Z,1099.00
2023-03-06T07:25:34.576Z,1115.00
2023-03-06T07:26:35.005Z,1144.00
2023-03-06T07:27:34.585Z,1152.00
2023-03-06T07:28:49.763Z,1164.00
2023-03-06T07:29:34.564Z,1221.00
2023-03-06T07:30:34.528Z,1259.00
2023-03-06T07:31:34.518Z,1289.00
2023-03-06T07:32:34.522Z,1301.00
2023-03-06T07:33:34.524Z,1274.00
2023-03-06T07:34:34.449Z,1297.00
2023-03-06T07:35:34.511Z,1269.00
2023-03-06T07:36:34.462Z,1372.00
2023-03-06T07:37:34.448Z,1442.00
2023-03-06T07:38:34.420Z,1500.00
2023-03-06T07:39:34.418Z,1505.00
2023-03-06T07:40:34.428Z,1557.00
2023-03-06T07:41:34.458Z,1668.00
2023-03-06T07:42:34.384Z,1743.00
2023-03-06T07:43:34.407Z,1872.00
2023-03-06T07:44:34.373Z,1930.00
2023-03-06T07:45:34.360Z,2001.00
2023-03-06T07:46:34.368Z,1825.00
2023-03-06T07:47:34.311Z,1997.00
2023-03-06T07:48:34.285Z,2238.00
2023-03-06T07:49:34.304Z,2401.00
2023-03-06T07:50:34.621Z,2466.00
2023-03-06T07:51:34.293Z,2496.00
2023-03-06T07:52:34.247Z,2528.00
2023-03-06T07:53:34.256Z,2519.00
2023-03-06T07:54:34.256Z,2605.00
2023-03-06T07:55:34.243Z,2466.00
2023-03-06T07:56:34.234Z,2494.00
2023-03-06T07:57:34.225Z,2470.00
2023-03-06T07:58:34.199Z,2471.00
2023-03-06T07:59:34.183Z,2413.00
2023-03-06T08:00:34.171Z,2503.00
2023-03-06T08:01:34.189Z,2663.00
2023-03-06T08:02:34.216Z,2594.00
2023-03-06T08:03:34.322Z,2381.00
2023-03-06T08:04:34.121Z,2158.00
2023-03-06T08:05:34.119Z,1987.00
2023-03-06T08:06:34.129Z,1875.00
2023-03-06T08:07:34.108Z,1804.00
2023-03-06T08:08:34.101Z,1730.00
2023-03-06T08:09:34.079Z,1610.00
2023-03-06T08:10:34.058Z,1418.00
2023-03-06T08:11:34.068Z,1269.00
2023-03-06T08:12:34.065Z,1301.00
2023-03-06T08:13:35.024Z,1242.00
2023-03-06T08:14:34.038Z,1214.00
2023-03-06T08:15:34.047Z,1216.00
2023-03-06T08:16:34.115Z,1318.00
2023-03-06T08:17:33.986Z,1379.00
2023-03-06T08:18:34.035Z,1354.00
2023-03-06T08:19:33.984Z,1394.00
2023-03-06T08:20:34.016Z,1504.00
2023-03-06T08:21:34.104Z,1557.00
2023-03-06T08:22:33.963Z,1427.00
2023-03-06T08:23:33.975Z,1314.00
2023-03-06T08:24:33.955Z,1234.00
2023-03-06T08:25:33.919Z,1154.00
2023-03-06T08:26:34.062Z,1127.00
2023-03-06T08:27:33.926Z,1173.00
2023-03-06T08:28:33.959Z,1200.00
2023-03-06T08:29:33.881Z,1154.00
2023-03-06T08:30:33.908Z,1173.00
2023-03-06T08:31:33.971Z,1214.00
2023-03-06T08:32:33.915Z,1204.00
2023-03-06T08:33:33.875Z,1187.00
2023-03-06T08:34:33.817Z,1162.00
2023-03-06T08:35:33.847Z,1114.00
2023-03-06T08:36:33.794Z,1088.00
2023-03-06T08:37:33.915Z,1131.00
2023-03-06T08:38:33.759Z,1149.00
2023-03-06T08:39:34.021Z,1103.00
2023-03-06T08:40:33.756Z,1051.00
2023-03-06T08:41:33.759Z,1029.00
2023-03-06T08:42:33.750Z,1004.00
2023-03-06T08:43:33.728Z,959.00
2023-03-06T08:44:33.761Z,924.00
2023-03-06T08:45:33.724Z,945.00
2023-03-06T08:46:33.685Z,1003.00
2023-03-06T08:47:33.668Z,1016.00
2023-03-06T08:48:33.669Z,960.00
2023-03-06T08:49:33.729Z,904.00
2023-03-06T08:50:33.669Z,860.00
2023-03-06T08:51:33.651Z,838.00
2023-03-06T08:52:33.616Z,846.00
2023-03-06T08:53:43.194Z,846.00
2023-03-06T08:54:33.650Z,814.00
2023-03-06T08:55:33.606Z,828.00
2023-03-06T08:56:33.596Z,871.00
2023-03-06T08:57:33.581Z,885.00
2023-03-06T08:58:33.610Z,889.00
2023-03-06T08:59:33.545Z,879.00
2023-03-06T09:00:34.354Z,876.00
2023-03-06T09:01:33.552Z,896.00
2023-03-06T09:02:33.617Z,900.00
2023-03-06T09:03:33.665Z,843.00
2023-03-06T09:04:33.577Z,848.00
2023-03-06T09:05:33.526Z,893.00
2023-03-06T09:06:33.520Z,929.00
2023-03-06T09:07:33.529Z,962.00
2023-03-06T09:08:33.926Z,991.00
2023-03-06T09:09:33.475Z,1012.00
2023-03-06T09:10:33.533Z,1052.00
2023-03-06T09:11:33.491Z,1134.00
2023-03-06T09:12:47.396Z,1179.00
2023-03-06T09:13:33.440Z,1141.00
2023-03-06T09:14:33.450Z,1077.00
2023-03-06T09:15:33.667Z,1015.00
2023-03-06T09:16:33.443Z,980.00
2023-03-06T09:17:33.448Z,933.00
2023-03-06T09:18:33.380Z,901.00
2023-03-06T09:19:33.385Z,884.00
2023-03-06T09:20:33.341Z,879.00
2023-03-06T09:21:33.316Z,893.00
2023-03-06T09:22:33.312Z,899.00
2023-03-06T09:23:33.349Z,904.00
2023-03-06T09:24:33.336Z,906.00
2023-03-06T09:25:33.308Z,923.00
2023-03-06T09:26:45.125Z,936.00
2023-03-06T09:27:33.331Z,973.00
2023-03-06T09:28:33.501Z,992.00
2023-03-06T09:29:33.305Z,998.00
2023-03-06T09:30:33.556Z,1003.00
2023-03-06T09:31:33.273Z,1048.00
2023-03-06T09:32:33.312Z,1074.00
2023-03-06T09:33:33.300Z,1119.00
2023-03-06T09:34:33.220Z,1112.00
2023-03-06T09:35:33.276Z,1119.00
2023-03-06T09:36:42.746Z,1134.00
2023-03-06T09:37:33.169Z,1143.00
2023-03-06T09:38:33.178Z,1165.00
2023-03-06T09:39:33.294Z,1213.00
2023-03-06T09:40:33.146Z,1264.00
2023-03-06T09:41:33.137Z,1308.00
2023-03-06T09:42:33.110Z,1321.00
2023-03-06T09:43:33.093Z,1371.00
2023-03-06T09:44:33.083Z,1419.00
2023-03-06T09:45:33.114Z,1466.00
2023-03-06T09:46:33.073Z,1493.00
2023-03-06T09:47:33.058Z,1497.00
2023-03-06T09:48:33.028Z,1484.00
2023-03-06T09:49:33.079Z,1485.00
2023-03-06T09:50:33.071Z,1472.00
2023-03-06T09:51:33.064Z,1441.00
2023-03-06T09:52:33.054Z,1394.00
2023-03-06T09:53:33.038Z,1352.00
2023-03-06T09:54:32.970Z,1331.00
2023-03-06T09:55:32.986Z,1321.00
2023-03-06T09:56:33.006Z,1292.00
2023-03-06T09:57:32.943Z,1282.00
2023-03-06T09:58:33.132Z,1267.00
2023-03-06T09:59:32.976Z,1261.00
2023-03-06T10:00:32.967Z,1274.00
2023-03-06T10:01:32.914Z,1283.00
2023-03-06T10:02:33.027Z,1266.00
2023-03-06T10:03:32.993Z,1234.00
2023-03-06T10:04:32.938Z,1211.00
2023-03-06T10:05:32.867Z,1209.00
2023-03-06T10:06:32.864Z,1239.00
2023-03-06T10:07:32.927Z,1258.00
2023-03-06T10:08:32.957Z,1258.00
2023-03-06T10:09:32.938Z,1286.00
2023-03-06T10:10:32.837Z,1318.00
2023-03-06T10:11:32.832Z,1368.00
2023-03-06T10:12:32.858Z,1462.00
2023-03-06T10:13:32.842Z,1513.00
2023-03-06T10:14:32.841Z,1516.00
2023-03-06T10:15:32.903Z,1534.00
2023-03-06T10:16:32.836Z,1598.00
2023-03-06T10:17:32.825Z,1597.00
2023-03-06T10:18:32.725Z,1606.00
2023-03-06T10:19:33.188Z,1724.00
2023-03-06T10:20:32.765Z,1826.00
2023-03-06T10:21:32.757Z,1885.00
2023-03-06T10:22:32.716Z,1952.00
2023-03-06T10:23:32.683Z,1991.00
2023-03-06T10:24:32.713Z,1985.00
2023-03-06T10:25:32.804Z,1903.00
2023-03-06T10:26:32.934Z,1818.00
2023-03-06T10:27:32.638Z,1760.00
2023-03-06T10:28:35.119Z,1723.00
2023-03-06T10:29:32.670Z,1695.00
2023-03-06T10:30:32.676Z,1643.00
2023-03-06T10:31:32.631Z,1581.00
2023-03-06T10:32:46.059Z,1542.00
2023-03-06T10:33:32.573Z,1541.00
2023-03-06T10:34:32.629Z,1576.00
2023-03-06T10:35:32.685Z,1656.00
2023-03-06T10:36:32.568Z,1763.00
2023-03-06T10:37:32.694Z,1869.00
2023-03-06T10:38:32.528Z,1931.00
2023-03-06T10:39:32.500Z,1978.00
2023-03-06T10:40:32.526Z,2003.00
2023-03-06T10:41:32.494Z,1995.00
2023-03-06T10:42:32.572Z,1984.00
2023-03-06T10:43:34.062Z,1949.00
2023-03-06T10:44:32.474Z,1914.00
2023-03-06T10:45:47.280Z,1895.00
2023-03-06T10:46:32.537Z,1901.00
2023-03-06T10:47:32.425Z,1954.00
2023-03-06T10:48:32.469Z,2026.00
2023-03-06T10:49:32.418Z,2085.00
2023-03-06T10:50:32.407Z,2103.00
2023-03-06T10:51:32.407Z,2064.00
2023-03-06T10:52:32.384Z,2048.00
2023-03-06T10:53:32.373Z,2049.00
2023-03-06T10:54:32.382Z,2082.00
2023-03-06T10:55:32.349Z,2087.00
2023-03-06T10:56:32.643Z,2126.00
2023-03-06T10:57:32.354Z,2170.00
2023-03-06T10:58:32.416Z,2229.00
2023-03-06T10:59:32.280Z,2259.00
2023-03-06T11:00:32.289Z,2287.00
2023-03-06T11:01:32.376Z,2317.00
2023-03-06T11:02:32.269Z,2328.00
2023-03-06T11:03:32.262Z,2267.00
2023-03-06T11:04:32.283Z,2241.00
2023-03-06T11:05:32.219Z,2288.00
2023-03-06T11:06:32.228Z,2299.00
2023-03-06T11:07:32.273Z,2299.00
2023-03-06T11:08:33.273Z,2273.00
2023-03-06T11:09:32.185Z,2280.00
2023-03-06T11:10:32.196Z,2363.00
2023-03-06T11:11:37.826Z,2421.00
2023-03-06T11:12:32.173Z,2478.00
2023-03-06T11:13:32.187Z,2529.00
2023-03-06T11:14:32.148Z,2583.00
2023-03-06T11:15:32.153Z,2581.00
2023-03-06T11:16:32.208Z,2560.00
2023-03-06T11:17:32.266Z,2486.00
2023-03-06T11:18:32.104Z,2447.00
2023-03-06T11:19:32.109Z,2478.00
2023-03-06T11:20:48.412Z,2555.00
2023-03-06T11:21:32.066Z,2607.00
2023-03-06T11:22:32.068Z,2666.00
2023-03-06T11:23:32.070Z,2696.00
2023-03-06T11:24:32.044Z,2645.00
2023-03-06T11:25:32.029Z,2532.00
2023-03-06T11:26:32.012Z,2394.00
2023-03-06T11:27:31.996Z,2395.00
2023-03-06T11:28:32.116Z,2403.00
2023-03-06T11:29:34.538Z,2431.00
2023-03-06T11:30:32.013Z,2375.00
2023-03-06T11:31:31.998Z,2345.00
2023-03-06T11:32:32.163Z,2384.00
2023-03-06T11:33:32.084Z,2379.00
2023-03-06T11:34:32.008Z,2381.00
2023-03-06T11:35:32.083Z,2348.00
2023-03-06T11:36:32.065Z,2374.00
2023-03-06T11:37:32.028Z,2431.00
2023-03-06T11:38:31.950Z,2524.00
2023-03-06T11:39:31.936Z,2638.00
2023-03-06T11:40:31.924Z,2689.00
2023-03-06T11:41:31.857Z,2677.00
2023-03-06T11:42:31.877Z,2566.00
2023-03-06T11:43:31.853Z,2538.00
2023-03-06T11:44:31.861Z,2525.00
2023-03-06T11:45:31.830Z,2514.00
2023-03-06T11:46:31.878Z,2495.00
2023-03-06T11:47:31.775Z,2449.00
2023-03-06T11:48:31.776Z,2379.00
2023-03-06T11:49:31.804Z,2304.00
2023-03-06T11:50:31.841Z,2306.00
2023-03-06T11:51:31.726Z,2341.00
2023-03-06T11:52:31.808Z,2370.00
2023-03-06T11:53:31.723Z,2392.00
2023-03-06T11:54:31.741Z,2475.00
2023-03-06T11:55:31.752Z,2588.00
2023-03-06T11:56:31.997Z,2754.00
2023-03-06T11:57:31.806Z,2865.00
2023-03-06T11:58:31.678Z,2885.00
2023-03-06T11:59:31.755Z,2800.00
2023-03-06T12:00:32.684Z,2844.00
2023-03-06T12:01:31.646Z,2938.00
2023-03-06T12:02:31.644Z,3076.00
2023-03-06T12:03:31.695Z,3308.00
2023-03-06T12:04:31.643Z,3525.00
2023-03-06T12:05:31.711Z,3564.00
2023-03-06T12:06:31.604Z,3579.00
2023-03-06T12:07:31.660Z,3564.00
2023-03-06T12:08:31.592Z,3562.00
2023-03-06T12:09:31.584Z,3628.00
2023-03-06T12:10:31.554Z,3611.00
2023-03-06T12:11:33.155Z,3613.00
2023-03-06T12:12:31.552Z,3625.00
2023-03-06T12:13:31.535Z,3785.00
2023-03-06T12:14:31.509Z,4024.00
2023-03-06T12:15:31.490Z,4209.00
2023-03-06T12:16:31.551Z,4323.00
2023-03-06T12:17:31.469Z,4388.00
2023-03-06T12:18:31.464Z,4413.00
2023-03-06T12:19:31.453Z,4427.00
2023-03-06T12:20:31.480Z,4347.00
2023-03-06T12:21:31.459Z,4073.00
2023-03-06T12:22:31.476Z,4038.00
2023-03-06T12:23:31.425Z,4120.00
2023-03-06T12:24:32.229Z,4203.00
2023-03-06T12:25:31.417Z,4240.00
2023-03-06T12:26:31.601Z,4168.00
2023-03-06T12:27:31.414Z,4076.00
2023-03-06T12:28:31.366Z,4071.00
2023-03-06T12:29:31.330Z,4016.00
2023-03-06T12:30:31.374Z,3912.00
2023-03-06T12:31:31.391Z,3875.00
2023-03-06T12:32:31.368Z,3926.00
2023-03-06T12:33:31.347Z,3959.00
2023-03-06T12:34:31.283Z,4063.00
2023-03-06T12:35:31.398Z,4665.00
2023-03-06T12:36:31.270Z,4512.00
2023-03-06T12:37:31.294Z,4616.00
2023-03-06T12:38:31.279Z,4618.00
2023-03-06T12:39:31.256Z,5070.00
2023-03-06T12:40:31.283Z,5040.00
2023-03-06T12:41:31.275Z,5522.00
2023-03-06T12:42:31.724Z,5351.00
2023-03-06T12:43:31.202Z,6078.00
2023-03-06T12:44:31.212Z,5855.00
2023-03-06T12:45:31.165Z,5747.00
2023-03-06T12:46:31.166Z,6512.00
2023-03-06T12:47:31.181Z,6453.00
2023-03-06T12:48:31.186Z,6010.00
2023-03-06T12:49:32.925Z,6340.00
2023-03-06T12:50:31.165Z,6671.00
2023-03-06T12:51:31.112Z,6566.00
2023-03-06T12:52:31.107Z,7526.00
2023-03-06T12:53:31.116Z,4851.00
2023-03-06T12:54:31.085Z,11099.00
2023-03-06T12:55:31.090Z,8771.00
2023-03-06T12:56:31.078Z,7344.00
2023-03-06T12:57:31.053Z,6642.00
2023-03-06T12:58:31.067Z,8950.00
2023-03-06T12:59:31.054Z,8213.00
2023-03-06T13:00:31.037Z,8342.00
2023-03-06T13:01:31.026Z,7040.00
2023-03-06T13:02:31.720Z,3949.00
2023-03-06T13:03:31.017Z,12496.00
2023-03-06T13:04:32.095Z,7983.00
2023-03-06T13:05:30.982Z,14540.00
2023-03-06T13:06:34.148Z,10134.00
2023-03-06T13:07:30.945Z,7933.00
2023-03-06T13:08:30.951Z,8079.00
2023-03-06T13:09:31.029Z,14283.00
2023-03-06T13:10:30.923Z,6997.00
2023-03-06T13:11:30.916Z,5848.00
2023-03-06T13:12:30.985Z,9632.00
2023-03-06T13:13:31.027Z,16477.00
2023-03-06T13:14:31.223Z,10231.00
2023-03-06T13:15:30.855Z,5488.00
2023-03-06T13:16:30.861Z,11225.00
2023-03-06T13:17:30.845Z,7259.00
2023-03-06T13:18:30.848Z,10117.00
2023-03-06T13:19:30.839Z,20011.00
2023-03-06T13:20:30.797Z,13714.00
2023-03-06T13:21:31.668Z,16550.00
2023-03-06T13:22:30.841Z,8726.00
2023-03-06T13:23:30.795Z,26476.00
2023-03-06T13:24:30.826Z,5274.00
2023-03-06T13:25:30.823Z,33391.00
2023-03-06T13:26:30.739Z,12541.00
2023-03-06T13:27:30.796Z,30953.00
2023-03-06T13:28:30.747Z,31888.00
2023-03-06T13:29:30.762Z,17642.00
2023-03-06T13:30:30.868Z,11870.00
2023-03-06T13:31:30.865Z,7410.00
2023-03-06T13:32:30.719Z,23443.00
2023-03-06T13:33:30.677Z,18007.00
2023-03-06T13:34:30.680Z,7900.00
2023-03-06T13:35:30.757Z,23126.00
2023-03-06T13:36:30.639Z,9790.00
2023-03-06T13:37:30.619Z,14974.00
2023-03-06T13:38:30.620Z,7480.00
2023-03-06T13:39:30.629Z,6893.00
2023-03-06T13:40:30.609Z,9331.00
2023-03-06T13:41:30.571Z,6458.00
2023-03-06T13:42:30.605Z,3697.00
2023-03-06T13:43:31.967Z,22583.00
2023-03-06T13:44:30.593Z,15031.00
2023-03-06T13:45:30.556Z,9964.00
2023-03-06T13:46:30.574Z,3577.00
2023-03-06T13:47:30.508Z,20174.00
2023-03-06T13:48:43.576Z,4106.00
2023-03-06T13:49:30.493Z,9999.00
2023-03-06T13:50:30.500Z,5446.00
2023-03-06T13:51:30.476Z,20658.00
2023-03-06T13:52:30.474Z,14192.00
2023-03-06T13:53:30.450Z,69118.00
2023-03-06T13:54:30.462Z,23173.00
2023-03-06T13:55:30.445Z,12896.00
2023-03-06T13:56:30.460Z,27119.00
2023-03-06T13:57:30.818Z,31705.00
2023-03-06T13:58:30.383Z,20453.00
2023-03-06T13:59:30.384Z,11544.00
2023-03-06T14:00:30.383Z,5624.00
2023-03-06T14:01:30.382Z,17509.00
2023-03-06T14:02:30.391Z,11169.00
2023-03-06T14:03:30.360Z,8179.00
2023-03-06T14:04:30.325Z,7898.00
2023-03-06T14:05:30.378Z,7132.00
2023-03-06T14:06:30.340Z,2652.00
2023-03-06T14:07:30.743Z,13363.00
2023-03-06T14:08:31.093Z,16038.00
2023-03-06T14:09:30.297Z,11634.00
2023-03-06T14:10:30.288Z,9164.00
2023-03-06T14:11:30.234Z,8402.00
2023-03-06T14:12:30.895Z,5838.00
2023-03-06T14:13:38.445Z,6091.00
2023-03-06T14:14:30.290Z,7524.00
2023-03-06T14:15:30.237Z,6498.00
2023-03-06T14:16:37.604Z,10434.00
2023-03-06T14:17:30.262Z,10245.00
2023-03-06T14:18:30.189Z,9360.00
2023-03-06T14:19:30.259Z,6271.00
2023-03-06T14:20:30.204Z,6377.00
2023-03-06T14:21:30.202Z,5566.00
2023-03-06T14:22:30.248Z,5902.00
2023-03-06T14:23:30.319Z,5941.00
2023-03-06T14:24:30.105Z,5639.00
2023-03-06T14:25:30.111Z,8659.00
2023-03-06T14:26:30.122Z,7303.00
2023-03-06T14:27:30.087Z,8332.00
2023-03-06T14:28:30.088Z,6903.00
2023-03-06T14:29:30.049Z,5668.00
2023-03-06T14:30:30.026Z,7214.00
2023-03-06T14:31:30.127Z,6117.00
2023-03-06T14:32:30.136Z,9960.00
2023-03-06T14:33:30.050Z,6650.00
2023-03-06T14:34:30.047Z,5620.00
2023-03-06T14:35:30.433Z,4823.00
2023-03-06T14:36:30.003Z,2224.00
2023-03-06T14:37:30.058Z,12135.00
2023-03-06T14:38:29.993Z,2846.00
2023-03-06T14:39:30.071Z,10335.00
2023-03-06T14:40:30.000Z,2525.00
2023-03-06T14:41:29.945Z,6537.00
2023-03-06T14:42:29.934Z,7460.00
2023-03-06T14:43:30.074Z,4997.00
2023-03-06T14:44:30.696Z,21880.00
2023-03-06T14:45:29.896Z,3142.00
2023-03-06T14:46:29.874Z,14825.00
2023-03-06T14:47:29.917Z,11421.00
2023-03-06T14:48:29.953Z,5062.00
2023-03-06T14:49:29.951Z,5744.00
2023-03-06T14:50:29.877Z,9146.00
2023-03-06T14:51:29.826Z,12247.00
2023-03-06T14:52:30.010Z,13073.00
2023-03-06T14:53:29.939Z,10292.00
2023-03-06T14:54:29.831Z,17684.00
2023-03-06T14:55:29.814Z,9318.00
2023-03-06T14:56:29.809Z,9883.00
2023-03-06T14:57:29.774Z,10523.00
2023-03-06T14:58:29.759Z,11904.00
2023-03-06T14:59:29.788Z,6594.00
2023-03-06T15:00:29.815Z,6914.00
2023-03-06T15:01:29.754Z,6563.00
2023-03-06T15:02:29.826Z,5928.00
2023-03-06T15:03:29.689Z,4239.00
2023-03-06T15:04:29.685Z,3411.00
2023-03-06T15:05:29.679Z,4143.00
2023-03-06T15:06:29.887Z,5732.00
2023-03-06T15:07:29.685Z,3884.00
2023-03-06T15:08:29.635Z,2926.00
2023-03-06T15:09:29.727Z,4634.00
2023-03-06T15:10:29.607Z,2285.00
2023-03-06T15:11:29.673Z,1819.00
2023-03-06T15:12:29.645Z,4330.00
2023-03-06T15:13:29.594Z,7500.00
2023-03-06T15:14:29.566Z,7695.00
2023-03-06T15:15:29.557Z,6276.00
2023-03-06T15:16:30.396Z,6422.00
2023-03-06T15:17:29.584Z,6341.00
2023-03-06T15:18:29.524Z,5164.00
2023-03-06T15:19:29.535Z,3627.00
2023-03-06T15:20:29.503Z,4274.00
2023-03-06T15:21:29.526Z,7162.00
2023-03-06T15:22:29.500Z,3804.00
2023-03-06T15:23:29.567Z,2419.00
2023-03-06T15:24:29.464Z,6999.00
2023-03-06T15:25:29.476Z,8024.00
2023-03-06T15:26:29.646Z,12258.00
2023-03-06T15:27:29.462Z,12576.00
2023-03-06T15:28:29.432Z,6827.00
2023-03-06T15:29:29.425Z,3473.00
2023-03-06T15:30:29.432Z,2197.00
2023-03-06T15:31:29.426Z,2451.00
2023-03-06T15:32:29.498Z,2655.00
2023-03-06T15:33:29.451Z,5003.00
2023-03-06T15:34:29.367Z,4871.00
2023-03-06T15:35:29.464Z,3921.00
2023-03-06T15:36:29.374Z,3212.00
2023-03-06T15:37:29.333Z,3307.00
2023-03-06T15:38:29.341Z,3174.00
2023-03-06T15:39:29.309Z,3896.00
2023-03-06T15:40:29.289Z,1754.00
2023-03-06T15:41:29.275Z,3441.00
2023-03-06T15:42:29.300Z,5565.00
2023-03-06T15:43:29.264Z,2556.00
2023-03-06T15:44:29.273Z,2700.00
2023-03-06T15:45:29.319Z,2665.00
2023-03-06T15:46:29.224Z,4097.00
2023-03-06T15:47:29.201Z,3217.00
2023-03-06T15:48:29.213Z,2038.00
2023-03-06T15:49:29.190Z,2285.00
2023-03-06T15:50:29.347Z,1768.00
2023-03-06T15:51:29.215Z,1768.00
2023-03-06T15:52:29.266Z,2320.00
2023-03-06T15:53:29.184Z,2009.00
2023-03-06T15:54:29.915Z,1209.00
2023-03-06T15:55:29.141Z,2070.00
2023-03-06T15:56:29.251Z,2345.00
2023-03-06T15:57:29.170Z,1747.00
2023-03-06T15:58:29.115Z,1588.00
2023-03-06T15:59:29.082Z,1733.00
2023-03-06T16:00:29.118Z,1518.00
2023-03-06T16:01:29.099Z,1369.00
2023-03-06T16:02:29.065Z,1189.00
2023-03-06T16:03:29.039Z,1100.00
2023-03-06T16:04:29.091Z,1048.00
2023-03-06T16:05:29.091Z,1008.00
2023-03-06T16:06:29.023Z,973.00
2023-03-06T16:07:29.012Z,940.00
2023-03-06T16:08:28.995Z,918.00
2023-03-06T16:09:29.045Z,892.00
2023-03-06T16:10:28.964Z,860.00
2023-03-06T16:11:35.417Z,828.00
2023-03-06T16:12:29.000Z,805.00
2023-03-06T16:13:29.058Z,795.00
2023-03-06T16:14:28.947Z,776.00
2023-03-06T16:15:28.986Z,768.00
2023-03-06T16:16:28.961Z,761.00
2023-03-06T16:17:28.911Z,726.00
2023-03-06T16:18:28.930Z,704.00
2023-03-06T16:19:28.888Z,670.00
2023-03-06T16:20:28.900Z,660.00
2023-03-06T16:21:28.992Z,649.00
2023-03-06T16:22:28.987Z,642.00
2023-03-06T16:23:28.854Z,644.00
2023-03-06T16:24:28.876Z,639.00
2023-03-06T16:25:28.834Z,644.00
2023-03-06T16:26:28.975Z,617.00
2023-03-06T16:27:28.813Z,590.00
2023-03-06T16:28:28.858Z,573.00
2023-03-06T16:29:28.820Z,549.00
2023-03-06T16:30:28.953Z,534.00
2023-03-06T16:31:28.755Z,512.00
2023-03-06T16:32:28.946Z,494.00
2023-03-06T16:33:28.865Z,458.00
2023-03-06T16:34:28.719Z,438.00
2023-03-06T16:35:28.754Z,413.00
2023-03-06T16:36:28.680Z,392.00
2023-03-06T16:37:28.725Z,375.00
2023-03-06T16:38:28.683Z,368.00
2023-03-06T16:39:28.667Z,350.00
2023-03-06T16:40:28.648Z,337.00
2023-03-06T16:41:28.710Z,311.00
2023-03-06T16:42:28.629Z,289.00
2023-03-06T16:43:28.613Z,270.00
2023-03-06T16:44:28.610Z,251.00
2023-03-06T16:45:28.597Z,241.00
2023-03-06T16:46:28.753Z,225.00
2023-03-06T16:47:28.739Z,211.00
2023-03-06T16:48:28.633Z,199.00
2023-03-06T16:49:28.645Z,185.00
2023-03-06T16:50:28.540Z,171.00
2023-03-06T16:51:28.535Z,161.00
2023-03-06T16:52:28.588Z,145.00
2023-03-06T16:53:28.515Z,133.00
2023-03-06T16:54:28.499Z,123.00
2023-03-06T16:55:28.524Z,108.00
2023-03-06T16:56:28.469Z,96.00
2023-03-06T16:57:28.504Z,93.00
2023-03-06T16:58:28.476Z,86.00
2023-03-06T16:59:28.452Z,78.00
2023-03-06T17:00:30.108Z,65.00
2023-03-06T17:01:28.434Z,59.00
2023-03-06T17:02:28.471Z,52.00
2023-03-06T17:03:28.427Z,45.00
2023-03-06T17:04:28.396Z,39.00
2023-03-06T17:05:28.382Z,31.00
2023-03-06T17:06:28.374Z,31.00
2023-03-06T17:07:28.357Z,29.00
2023-03-06T17:08:28.358Z,20.00
2023-03-06T17:09:28.434Z,20.00
2023-03-06T17:10:28.332Z,16.00
2023-03-06T17:11:28.332Z,13.00
2023-03-06T17:12:28.342Z,12.00
2023-03-06T17:13:28.311Z,11.00
2023-03-06T17:14:28.279Z,10.00
2023-03-06T17:15:28.283Z,9.00